EDT,Max TemperatureF,Mean TemperatureF,Min TemperatureF,Max Dew PointF,MeanDew PointF,Min DewpointF,Max Humidity, Mean Humidity, Min Humidity, Max Sea Level PressureIn, Mean Sea Level PressureIn, Min Sea Level PressureIn, Max VisibilityMiles, Mean VisibilityMiles, Min VisibilityMiles, Max Wind SpeedMPH, Mean Wind SpeedMPH, Max Gust SpeedMPH,PrecipitationIn, CloudCover, Events, WindDirDegrees
2013-10-1,82,66,51,59,55,52,100,84,37,30.19,30.14,30.09,10,8,1,8,0,,0.00,1,,263
2013-10-2,84,68,53,61,56,54,100,87,37,30.21,30.15,30.12,10,7,3,8,0,,0.00,0,,330
2013-10-3,84,70,57,63,59,54,100,84,35,30.19,30.15,30.12,10,8,2,9,0,,0.00,1,,222
2013-10-4,87,72,57,64,59,55,100,82,33,30.21,30.16,30.12,10,8,1,0,0,,0.00,0,,-1
2013-10-5,87,73,59,64,61,57,100,84,38,30.19,30.14,30.09,10,6,0,6,0,,0.00,0,Fog,170
2013-10-6,82,71,60,66,62,61,100,80,48,30.11,30.05,29.96,10,10,3,8,1,,0.00,3,,159
2013-10-7,77,70,64,70,64,50,94,82,59,30.06,29.93,29.87,10,9,3,12,5,20,0.02,7,Rain-Thunderstorm,131
2013-10-8,66,62,59,50,46,43,68,58,49,30.25,30.15,30.06,10,10,10,13,8,24,0.00,8,,23
2013-10-9,71,60,50,52,46,43,82,66,41,30.27,30.21,30.17,10,10,10,14,8,22,0.00,2,,8
2013-10-10,71,61,51,59,52,46,88,74,59,30.17,30.10,30.02,10,10,10,13,7,18,0.00,6,,342
2013-10-11,78,66,55,61,58,54,94,77,44,30.04,30.01,29.97,10,10,10,10,1,,0.00,7,,334
2013-10-12,73,64,55,63,59,55,100,84,60,30.14,30.07,30.01,10,8,1,6,1,,0.00,6,,7
2013-10-13,69,66,62,63,61,59,94,88,73,30.27,30.20,30.14,10,10,7,13,5,,0.00,8,Rain,12
2013-10-14,69,64,60,61,58,55,94,86,68,30.29,30.25,30.21,10,9,4,14,7,18,0.00,7,,23
2013-10-15,75,65,55,55,53,46,94,77,38,30.25,30.19,30.10,10,10,10,12,5,,0.00,4,,15
2013-10-16,73,62,51,61,55,50,100,86,53,30.13,30.07,30.01,10,10,7,5,0,,0.00,3,,270
2013-10-17,71,65,59,64,61,59,100,87,64,30.02,29.97,29.91,10,9,2,10,2,,0.00,5,Rain,225
2013-10-18,69,61,53,63,55,46,100,82,46,30.09,30.00,29.94,10,10,2,8,2,,0.00,3,,22
2013-10-19,64,57,50,61,55,50,100,90,68,30.02,29.97,29.90,10,8,0,6,0,,0.00,6,Fog-Rain,237
2013-10-20,66,54,41,48,42,36,100,83,34,30.15,30.06,29.96,10,6,0,8,1,,0.00,1,Fog,27
2013-10-21,69,53,37,52,43,36,100,85,43,30.19,30.13,30.05,10,8,4,7,0,,0.00,0,,225
2013-10-22,71,61,51,55,53,50,100,82,49,30.06,29.97,29.85,10,10,5,8,1,,0.00,3,Rain,232
2013-10-23,68,55,42,57,45,28,94,70,26,30.08,29.86,29.77,10,9,5,15,3,25,0.00,4,,303
2013-10-24,60,46,32,43,33,28,100,73,33,30.21,30.15,30.08,10,10,10,9,2,,0.00,2,,341
2013-10-25,53,44,33,36,31,25,81,62,33,30.42,30.32,30.21,10,10,10,13,5,18,0.00,4,,13
2013-10-26,57,42,26,34,29,25,100,72,31,30.41,30.29,30.12,10,10,7,10,1,16,0.00,1,,220
2013-10-27,69,52,35,46,38,34,93,69,35,30.17,30.12,30.09,10,10,5,7,2,,0.00,2,,224
2013-10-28,68,55,42,52,46,43,100,87,49,30.31,30.22,30.15,10,8,1,0,0,,0.00,3,,-1
2013-10-29,73,60,46,55,50,45,100,85,43,30.38,30.32,30.28,10,7,0,5,0,,0.00,3,Fog,125
2013-10-30,78,64,50,55,51,48,100,83,39,30.34,30.28,30.20,10,8,2,12,1,20,0.00,2,,227
2013-10-31,71,63,55,63,56,52,94,78,56,30.22,30.13,29.95,10,10,10,13,2,21,0.00,1,,185